sensor_id;sensor_type;location;lat;lon;timestamp;temperature;humidity
23359;DHT22;11851;50.796;4.372;2022-08-19T00:00:13;22.20;99.90
23359;DHT22;11851;50.796;4.372;2022-08-19T00:02:40;22.20;99.90
23359;DHT22;11851;50.796;4.372;2022-08-19T00:05:07;22.20;99.90
23359;DHT22;11851;50.796;4.372;2022-08-19T00:07:33;22.20;99.90
23359;DHT22;11851;50.796;4.372;2022-08-19T00:09:59;22.20;99.90
23359;DHT22;11851;50.796;4.372;2022-08-19T00:12:25;22.20;99.90
23359;DHT22;11851;50.796;4.372;2022-08-19T00:14:51;22.20;99.90
23359;DHT22;11851;50.796;4.372;2022-08-19T00:17:19;22.10;99.90
23359;DHT22;11851;50.796;4.372;2022-08-19T00:19:45;22.10;99.90
23359;DHT22;11851;50.796;4.372;2022-08-19T00:22:10;22.10;99.90
23359;DHT22;11851;50.796;4.372;2022-08-19T00:24:36;22.00;99.90
23359;DHT22;11851;50.796;4.372;2022-08-19T00:27:04;22.00;99.90
23359;DHT22;11851;50.796;4.372;2022-08-19T00:29:30;22.10;99.90
23359;DHT22;11851;50.796;4.372;2022-08-19T00:31:56;22.00;99.90
23359;DHT22;11851;50.796;4.372;2022-08-19T00:34:24;22.00;99.90
23359;DHT22;11851;50.796;4.372;2022-08-19T00:36:54;22.00;99.90
23359;DHT22;11851;50.796;4.372;2022-08-19T00:39:20;22.00;99.90
23359;DHT22;11851;50.796;4.372;2022-08-19T00:41:47;22.00;99.90
23359;DHT22;11851;50.796;4.372;2022-08-19T00:44:17;22.10;99.90
23359;DHT22;11851;50.796;4.372;2022-08-19T00:46:47;22.10;99.90
23359;DHT22;11851;50.796;4.372;2022-08-19T00:52:02;22.10;99.90
23359;DHT22;11851;50.796;4.372;2022-08-19T00:54:29;22.20;99.90
23359;DHT22;11851;50.796;4.372;2022-08-19T00:56:57;22.20;99.90
23359;DHT22;11851;50.796;4.372;2022-08-19T00:59:24;22.20;99.90
23359;DHT22;11851;50.796;4.372;2022-08-19T01:01:50;22.20;99.90
23359;DHT22;11851;50.796;4.372;2022-08-19T01:04:15;22.10;99.90
23359;DHT22;11851;50.796;4.372;2022-08-19T01:06:42;22.10;99.90
23359;DHT22;11851;50.796;4.372;2022-08-19T01:09:08;22.10;99.90
23359;DHT22;11851;50.796;4.372;2022-08-19T01:11:36;22.00;99.90
23359;DHT22;11851;50.796;4.372;2022-08-19T01:14:04;22.00;99.90
23359;DHT22;11851;50.796;4.372;2022-08-19T01:16:31;22.00;99.90
23359;DHT22;11851;50.796;4.372;2022-08-19T01:18:58;22.00;99.90
23359;DHT22;11851;50.796;4.372;2022-08-19T01:21:41;22.00;99.90
23359;DHT22;11851;50.796;4.372;2022-08-19T01:24:08;21.90;99.90
23359;DHT22;11851;50.796;4.372;2022-08-19T01:26:42;21.90;99.90
23359;DHT22;11851;50.796;4.372;2022-08-19T01:29:09;21.90;99.90
23359;DHT22;11851;50.796;4.372;2022-08-19T01:31:36;21.90;99.90
23359;DHT22;11851;50.796;4.372;2022-08-19T01:34:03;21.90;99.90
23359;DHT22;11851;50.796;4.372;2022-08-19T01:36:39;21.80;99.90
23359;DHT22;11851;50.796;4.372;2022-08-19T01:39:16;21.80;99.90
23359;DHT22;11851;50.796;4.372;2022-08-19T01:41:42;21.70;99.90
23359;DHT22;11851;50.796;4.372;2022-08-19T01:44:09;21.50;99.90
23359;DHT22;11851;50.796;4.372;2022-08-19T01:46:36;21.40;99.90
23359;DHT22;11851;50.796;4.372;2022-08-19T01:49:03;21.30;99.90
23359;DHT22;11851;50.796;4.372;2022-08-19T01:51:30;21.20;99.90
23359;DHT22;11851;50.796;4.372;2022-08-19T01:53:56;21.20;99.90
23359;DHT22;11851;50.796;4.372;2022-08-19T01:56:22;21.00;99.90
23359;DHT22;11851;50.796;4.372;2022-08-19T01:59:10;21.00;99.90
23359;DHT22;11851;50.796;4.372;2022-08-19T02:01:37;20.90;99.90
23359;DHT22;11851;50.796;4.372;2022-08-19T02:04:03;20.90;99.90
23359;DHT22;11851;50.796;4.372;2022-08-19T02:06:30;20.80;99.90
23359;DHT22;11851;50.796;4.372;2022-08-19T02:08:55;20.90;99.90
23359;DHT22;11851;50.796;4.372;2022-08-19T02:11:25;20.90;99.90
23359;DHT22;11851;50.796;4.372;2022-08-19T02:13:52;20.90;99.90
23359;DHT22;11851;50.796;4.372;2022-08-19T02:16:18;20.80;99.90
23359;DHT22;11851;50.796;4.372;2022-08-19T02:18:45;20.80;99.90
23359;DHT22;11851;50.796;4.372;2022-08-19T02:21:12;20.80;99.90
23359;DHT22;11851;50.796;4.372;2022-08-19T02:23:38;20.80;99.90
23359;DHT22;11851;50.796;4.372;2022-08-19T02:26:04;20.80;99.90
23359;DHT22;11851;50.796;4.372;2022-08-19T02:28:29;20.70;99.90
23359;DHT22;11851;50.796;4.372;2022-08-19T02:30:55;20.60;99.90
23359;DHT22;11851;50.796;4.372;2022-08-19T02:33:20;20.60;99.90
23359;DHT22;11851;50.796;4.372;2022-08-19T02:35:46;20.60;99.90
23359;DHT22;11851;50.796;4.372;2022-08-19T02:38:13;20.60;99.90
23359;DHT22;11851;50.796;4.372;2022-08-19T02:40:59;20.60;99.90
23359;DHT22;11851;50.796;4.372;2022-08-19T02:43:26;20.50;99.90
23359;DHT22;11851;50.796;4.372;2022-08-19T02:45:53;20.50;99.90
23359;DHT22;11851;50.796;4.372;2022-08-19T02:48:21;20.50;99.90
23359;DHT22;11851;50.796;4.372;2022-08-19T02:50:49;20.50;99.90
23359;DHT22;11851;50.796;4.372;2022-08-19T02:53:24;20.50;99.90
23359;DHT22;11851;50.796;4.372;2022-08-19T02:55:50;20.60;99.90
23359;DHT22;11851;50.796;4.372;2022-08-19T02:58:16;20.50;99.90
23359;DHT22;11851;50.796;4.372;2022-08-19T03:00:48;20.50;99.90
23359;DHT22;11851;50.796;4.372;2022-08-19T03:03:15;20.50;99.90
23359;DHT22;11851;50.796;4.372;2022-08-19T03:05:41;20.50;99.90
23359;DHT22;11851;50.796;4.372;2022-08-19T03:08:08;20.50;99.90
23359;DHT22;11851;50.796;4.372;2022-08-19T03:10:41;20.50;99.90
23359;DHT22;11851;50.796;4.372;2022-08-19T03:13:09;20.40;99.90
23359;DHT22;11851;50.796;4.372;2022-08-19T03:15:39;20.40;99.90
23359;DHT22;11851;50.796;4.372;2022-08-19T03:18:05;20.30;99.90
23359;DHT22;11851;50.796;4.372;2022-08-19T03:20:30;20.20;99.90
23359;DHT22;11851;50.796;4.372;2022-08-19T03:22:56;20.20;99.90
23359;DHT22;11851;50.796;4.372;2022-08-19T03:25:22;20.20;99.90
23359;DHT22;11851;50.796;4.372;2022-08-19T03:27:48;20.20;99.90
23359;DHT22;11851;50.796;4.372;2022-08-19T03:30:14;20.20;99.90
23359;DHT22;11851;50.796;4.372;2022-08-19T03:32:40;20.20;99.90
23359;DHT22;11851;50.796;4.372;2022-08-19T03:35:06;20.20;99.90
23359;DHT22;11851;50.796;4.372;2022-08-19T03:37:32;20.20;99.90
23359;DHT22;11851;50.796;4.372;2022-08-19T03:39:58;20.20;99.90
23359;DHT22;11851;50.796;4.372;2022-08-19T03:42:24;20.20;99.90
23359;DHT22;11851;50.796;4.372;2022-08-19T03:44:51;20.20;99.90
23359;DHT22;11851;50.796;4.372;2022-08-19T03:47:17;20.30;99.90
23359;DHT22;11851;50.796;4.372;2022-08-19T03:49:43;20.20;99.90
23359;DHT22;11851;50.796;4.372;2022-08-19T03:52:09;20.20;99.90
23359;DHT22;11851;50.796;4.372;2022-08-19T03:54:35;20.20;99.90
23359;DHT22;11851;50.796;4.372;2022-08-19T03:57:02;20.10;99.90
23359;DHT22;11851;50.796;4.372;2022-08-19T03:59:31;20.10;99.90
23359;DHT22;11851;50.796;4.372;2022-08-19T04:02:00;20.10;99.90
23359;DHT22;11851;50.796;4.372;2022-08-19T04:04:27;19.90;99.90
23359;DHT22;11851;50.796;4.372;2022-08-19T04:06:52;19.80;99.90
23359;DHT22;11851;50.796;4.372;2022-08-19T04:09:19;19.70;99.90
23359;DHT22;11851;50.796;4.372;2022-08-19T04:11:51;19.60;99.90
23359;DHT22;11851;50.796;4.372;2022-08-19T04:14:23;19.60;99.90
23359;DHT22;11851;50.796;4.372;2022-08-19T04:16:50;19.40;99.90
23359;DHT22;11851;50.796;4.372;2022-08-19T04:19:18;19.30;99.90
23359;DHT22;11851;50.796;4.372;2022-08-19T04:21:46;19.30;99.90
23359;DHT22;11851;50.796;4.372;2022-08-19T04:24:13;19.30;99.90
23359;DHT22;11851;50.796;4.372;2022-08-19T04:26:39;19.30;99.90
23359;DHT22;11851;50.796;4.372;2022-08-19T04:29:10;19.30;99.90
23359;DHT22;11851;50.796;4.372;2022-08-19T04:31:36;19.30;99.90
23359;DHT22;11851;50.796;4.372;2022-08-19T04:34:05;19.20;99.90
23359;DHT22;11851;50.796;4.372;2022-08-19T04:36:34;19.20;99.90
23359;DHT22;11851;50.796;4.372;2022-08-19T04:39:06;19.20;99.90
23359;DHT22;11851;50.796;4.372;2022-08-19T04:41:33;19.10;99.90
23359;DHT22;11851;50.796;4.372;2022-08-19T04:44:17;19.10;99.90
23359;DHT22;11851;50.796;4.372;2022-08-19T04:46:45;19.10;99.90
23359;DHT22;11851;50.796;4.372;2022-08-19T04:49:10;19.10;99.90
23359;DHT22;11851;50.796;4.372;2022-08-19T04:51:39;19.10;99.90
23359;DHT22;11851;50.796;4.372;2022-08-19T04:54:05;19.00;99.90
23359;DHT22;11851;50.796;4.372;2022-08-19T04:56:31;19.10;99.90
23359;DHT22;11851;50.796;4.372;2022-08-19T04:58:57;19.10;99.90
23359;DHT22;11851;50.796;4.372;2022-08-19T05:01:25;19.10;99.90
23359;DHT22;11851;50.796;4.372;2022-08-19T05:03:52;19.20;99.90
23359;DHT22;11851;50.796;4.372;2022-08-19T05:06:20;19.20;99.90
23359;DHT22;11851;50.796;4.372;2022-08-19T05:08:47;19.20;99.90
23359;DHT22;11851;50.796;4.372;2022-08-19T05:11:21;19.20;99.90
23359;DHT22;11851;50.796;4.372;2022-08-19T05:13:47;19.10;99.90
23359;DHT22;11851;50.796;4.372;2022-08-19T05:16:16;19.20;99.90
23359;DHT22;11851;50.796;4.372;2022-08-19T05:18:42;19.20;99.90
23359;DHT22;11851;50.796;4.372;2022-08-19T05:21:27;19.20;99.90
23359;DHT22;11851;50.796;4.372;2022-08-19T05:24:12;19.30;99.90
23359;DHT22;11851;50.796;4.372;2022-08-19T05:26:41;19.30;99.90
23359;DHT22;11851;50.796;4.372;2022-08-19T05:29:08;19.40;99.90
23359;DHT22;11851;50.796;4.372;2022-08-19T05:31:36;19.50;99.90
23359;DHT22;11851;50.796;4.372;2022-08-19T05:34:02;19.60;99.90
23359;DHT22;11851;50.796;4.372;2022-08-19T05:36:34;19.60;99.90
23359;DHT22;11851;50.796;4.372;2022-08-19T05:39:01;19.70;99.90
23359;DHT22;11851;50.796;4.372;2022-08-19T05:41:27;19.70;99.90
23359;DHT22;11851;50.796;4.372;2022-08-19T05:44:01;19.80;99.90
23359;DHT22;11851;50.796;4.372;2022-08-19T05:46:28;19.80;99.90
23359;DHT22;11851;50.796;4.372;2022-08-19T05:48:54;19.90;99.90
23359;DHT22;11851;50.796;4.372;2022-08-19T05:51:22;19.90;99.90
23359;DHT22;11851;50.796;4.372;2022-08-19T05:53:48;20.00;99.90
23359;DHT22;11851;50.796;4.372;2022-08-19T05:56:15;20.10;99.90
23359;DHT22;11851;50.796;4.372;2022-08-19T05:58:42;20.20;99.90
23359;DHT22;11851;50.796;4.372;2022-08-19T06:01:15;20.30;99.90
23359;DHT22;11851;50.796;4.372;2022-08-19T06:03:42;20.30;99.90
23359;DHT22;11851;50.796;4.372;2022-08-19T06:06:08;20.40;99.90
23359;DHT22;11851;50.796;4.372;2022-08-19T06:08:35;20.50;99.90
23359;DHT22;11851;50.796;4.372;2022-08-19T06:11:19;20.50;99.90
23359;DHT22;11851;50.796;4.372;2022-08-19T06:13:46;20.60;99.90
23359;DHT22;11851;50.796;4.372;2022-08-19T06:16:13;20.60;99.90
23359;DHT22;11851;50.796;4.372;2022-08-19T06:18:45;20.60;99.90
23359;DHT22;11851;50.796;4.372;2022-08-19T06:21:11;20.60;99.90
23359;DHT22;11851;50.796;4.372;2022-08-19T06:23:37;20.60;99.90
23359;DHT22;11851;50.796;4.372;2022-08-19T06:26:03;20.70;99.90
23359;DHT22;11851;50.796;4.372;2022-08-19T06:28:29;20.80;99.90
23359;DHT22;11851;50.796;4.372;2022-08-19T06:30:55;20.80;99.90
23359;DHT22;11851;50.796;4.372;2022-08-19T06:33:20;20.90;99.90
23359;DHT22;11851;50.796;4.372;2022-08-19T06:35:46;20.90;99.90
23359;DHT22;11851;50.796;4.372;2022-08-19T06:38:12;21.00;99.90
23359;DHT22;11851;50.796;4.372;2022-08-19T06:40:37;21.00;99.90
23359;DHT22;11851;50.796;4.372;2022-08-19T06:43:03;21.10;99.90
23359;DHT22;11851;50.796;4.372;2022-08-19T06:45:29;21.20;99.90
23359;DHT22;11851;50.796;4.372;2022-08-19T06:47:55;21.20;99.90
23359;DHT22;11851;50.796;4.372;2022-08-19T06:50:24;21.20;99.90
23359;DHT22;11851;50.796;4.372;2022-08-19T06:52:50;21.30;99.90
23359;DHT22;11851;50.796;4.372;2022-08-19T06:55:16;21.40;99.90
23359;DHT22;11851;50.796;4.372;2022-08-19T06:57:42;21.40;99.90
23359;DHT22;11851;50.796;4.372;2022-08-19T07:00:09;21.40;99.90
23359;DHT22;11851;50.796;4.372;2022-08-19T07:02:42;21.30;99.90
23359;DHT22;11851;50.796;4.372;2022-08-19T07:05:08;21.30;99.90
23359;DHT22;11851;50.796;4.372;2022-08-19T07:07:33;21.20;99.90
23359;DHT22;11851;50.796;4.372;2022-08-19T07:10:00;21.10;99.90
23359;DHT22;11851;50.796;4.372;2022-08-19T07:12:28;21.10;99.90
23359;DHT22;11851;50.796;4.372;2022-08-19T07:14:54;21.00;99.90
23359;DHT22;11851;50.796;4.372;2022-08-19T07:17:19;21.10;99.90
23359;DHT22;11851;50.796;4.372;2022-08-19T07:19:45;21.00;99.90
23359;DHT22;11851;50.796;4.372;2022-08-19T07:22:11;21.10;99.90
23359;DHT22;11851;50.796;4.372;2022-08-19T07:24:37;21.10;99.90
23359;DHT22;11851;50.796;4.372;2022-08-19T07:27:05;21.20;99.90
23359;DHT22;11851;50.796;4.372;2022-08-19T07:29:33;21.30;99.90
23359;DHT22;11851;50.796;4.372;2022-08-19T07:32:00;21.30;99.90
23359;DHT22;11851;50.796;4.372;2022-08-19T07:34:28;21.40;99.90
23359;DHT22;11851;50.796;4.372;2022-08-19T07:36:54;21.50;99.90
23359;DHT22;11851;50.796;4.372;2022-08-19T07:39:26;21.60;99.90
23359;DHT22;11851;50.796;4.372;2022-08-19T07:41:52;21.70;99.90
23359;DHT22;11851;50.796;4.372;2022-08-19T07:44:19;21.70;99.90
23359;DHT22;11851;50.796;4.372;2022-08-19T07:46:49;21.80;99.90
23359;DHT22;11851;50.796;4.372;2022-08-19T07:49:16;21.90;99.90
23359;DHT22;11851;50.796;4.372;2022-08-19T07:51:45;21.80;99.90
23359;DHT22;11851;50.796;4.372;2022-08-19T07:54:11;21.90;99.90
23359;DHT22;11851;50.796;4.372;2022-08-19T07:56:37;21.90;99.90
23359;DHT22;11851;50.796;4.372;2022-08-19T07:59:03;22.00;99.90
23359;DHT22;11851;50.796;4.372;2022-08-19T08:01:29;22.10;99.90
23359;DHT22;11851;50.796;4.372;2022-08-19T08:03:57;22.20;99.90
23359;DHT22;11851;50.796;4.372;2022-08-19T08:06:42;22.10;99.90
23359;DHT22;11851;50.796;4.372;2022-08-19T08:09:30;22.20;99.90
23359;DHT22;11851;50.796;4.372;2022-08-19T08:11:59;22.30;99.90
23359;DHT22;11851;50.796;4.372;2022-08-19T08:14:40;22.50;99.90
23359;DHT22;11851;50.796;4.372;2022-08-19T08:17:08;22.60;99.90
23359;DHT22;11851;50.796;4.372;2022-08-19T08:19:34;22.50;99.90
23359;DHT22;11851;50.796;4.372;2022-08-19T08:22:01;22.50;99.90
23359;DHT22;11851;50.796;4.372;2022-08-19T08:24:29;22.60;99.90
23359;DHT22;11851;50.796;4.372;2022-08-19T08:27:00;22.60;99.90
23359;DHT22;11851;50.796;4.372;2022-08-19T08:29:30;22.50;99.90
23359;DHT22;11851;50.796;4.372;2022-08-19T08:31:56;22.60;99.90
23359;DHT22;11851;50.796;4.372;2022-08-19T08:34:22;22.60;99.90
23359;DHT22;11851;50.796;4.372;2022-08-19T08:36:48;22.60;99.90
23359;DHT22;11851;50.796;4.372;2022-08-19T08:39:18;22.70;99.90
23359;DHT22;11851;50.796;4.372;2022-08-19T08:42:35;22.60;99.90
23359;DHT22;11851;50.796;4.372;2022-08-19T08:45:14;22.60;99.90
23359;DHT22;11851;50.796;4.372;2022-08-19T08:47:45;22.50;99.90
23359;DHT22;11851;50.796;4.372;2022-08-19T08:52:51;22.60;99.90
23359;DHT22;11851;50.796;4.372;2022-08-19T08:55:25;22.70;99.90
23359;DHT22;11851;50.796;4.372;2022-08-19T08:58:05;22.70;99.90
23359;DHT22;11851;50.796;4.372;2022-08-19T09:00:34;22.80;99.90
23359;DHT22;11851;50.796;4.372;2022-08-19T09:03:02;22.80;99.90
23359;DHT22;11851;50.796;4.372;2022-08-19T09:08:06;22.90;99.90
23359;DHT22;11851;50.796;4.372;2022-08-19T09:10:52;22.80;99.90
23359;DHT22;11851;50.796;4.372;2022-08-19T09:16:16;22.90;99.90
23359;DHT22;11851;50.796;4.372;2022-08-19T09:18:45;22.90;99.90
23359;DHT22;11851;50.796;4.372;2022-08-19T09:21:13;22.90;99.90
23359;DHT22;11851;50.796;4.372;2022-08-19T09:23:39;23.00;99.90
23359;DHT22;11851;50.796;4.372;2022-08-19T09:26:15;23.10;99.90
23359;DHT22;11851;50.796;4.372;2022-08-19T09:28:42;23.10;99.90
23359;DHT22;11851;50.796;4.372;2022-08-19T09:31:12;23.20;99.90
23359;DHT22;11851;50.796;4.372;2022-08-19T09:33:38;23.20;99.90
23359;DHT22;11851;50.796;4.372;2022-08-19T09:36:09;23.20;99.90
23359;DHT22;11851;50.796;4.372;2022-08-19T09:38:36;23.20;99.90
23359;DHT22;11851;50.796;4.372;2022-08-19T09:41:06;23.10;99.90
23359;DHT22;11851;50.796;4.372;2022-08-19T09:43:33;23.20;99.90
23359;DHT22;11851;50.796;4.372;2022-08-19T09:46:02;23.20;99.90
23359;DHT22;11851;50.796;4.372;2022-08-19T09:48:31;23.30;99.90
23359;DHT22;11851;50.796;4.372;2022-08-19T09:51:06;23.20;99.90
23359;DHT22;11851;50.796;4.372;2022-08-19T09:53:33;23.20;99.90
23359;DHT22;11851;50.796;4.372;2022-08-19T09:55:59;23.40;99.90
23359;DHT22;11851;50.796;4.372;2022-08-19T09:58:25;23.40;99.90
23359;DHT22;11851;50.796;4.372;2022-08-19T10:00:54;23.50;99.90
23359;DHT22;11851;50.796;4.372;2022-08-19T10:03:20;23.60;99.90
23359;DHT22;11851;50.796;4.372;2022-08-19T10:05:46;23.60;99.90
23359;DHT22;11851;50.796;4.372;2022-08-19T10:08:30;23.70;99.90
23359;DHT22;11851;50.796;4.372;2022-08-19T10:10:56;23.60;99.90
23359;DHT22;11851;50.796;4.372;2022-08-19T10:13:24;23.50;99.90
23359;DHT22;11851;50.796;4.372;2022-08-19T10:15:53;23.60;99.90
23359;DHT22;11851;50.796;4.372;2022-08-19T10:18:21;23.50;99.90
23359;DHT22;11851;50.796;4.372;2022-08-19T10:20:48;23.50;99.90
23359;DHT22;11851;50.796;4.372;2022-08-19T10:23:15;23.50;99.90
23359;DHT22;11851;50.796;4.372;2022-08-19T10:25:41;23.50;99.90
23359;DHT22;11851;50.796;4.372;2022-08-19T10:28:08;23.50;99.90
23359;DHT22;11851;50.796;4.372;2022-08-19T10:30:38;23.60;99.90
23359;DHT22;11851;50.796;4.372;2022-08-19T10:33:04;23.70;99.90
23359;DHT22;11851;50.796;4.372;2022-08-19T10:35:30;23.80;99.90
23359;DHT22;11851;50.796;4.372;2022-08-19T10:37:56;23.80;99.90
23359;DHT22;11851;50.796;4.372;2022-08-19T10:40:27;23.70;99.90
23359;DHT22;11851;50.796;4.372;2022-08-19T10:42:54;23.70;99.90
23359;DHT22;11851;50.796;4.372;2022-08-19T10:45:21;23.60;99.90
23359;DHT22;11851;50.796;4.372;2022-08-19T10:47:51;23.50;99.90
23359;DHT22;11851;50.796;4.372;2022-08-19T10:50:17;23.60;99.90
23359;DHT22;11851;50.796;4.372;2022-08-19T10:53:06;23.60;99.90
23359;DHT22;11851;50.796;4.372;2022-08-19T10:55:34;23.70;99.90
23359;DHT22;11851;50.796;4.372;2022-08-19T10:58:20;23.70;99.90
23359;DHT22;11851;50.796;4.372;2022-08-19T11:00:56;23.80;99.90
23359;DHT22;11851;50.796;4.372;2022-08-19T11:03:24;23.90;99.90
23359;DHT22;11851;50.796;4.372;2022-08-19T11:06:05;23.90;99.90
23359;DHT22;11851;50.796;4.372;2022-08-19T11:08:32;23.90;99.90
23359;DHT22;11851;50.796;4.372;2022-08-19T11:11:00;23.70;99.90
23359;DHT22;11851;50.796;4.372;2022-08-19T11:13:31;23.60;99.90
23359;DHT22;11851;50.796;4.372;2022-08-19T11:16:05;23.50;99.90
23359;DHT22;11851;50.796;4.372;2022-08-19T11:18:36;23.50;99.90
23359;DHT22;11851;50.796;4.372;2022-08-19T11:21:11;23.50;99.90
23359;DHT22;11851;50.796;4.372;2022-08-19T11:23:37;23.50;99.90
23359;DHT22;11851;50.796;4.372;2022-08-19T11:26:03;23.50;99.90
23359;DHT22;11851;50.796;4.372;2022-08-19T11:28:28;23.50;99.90
23359;DHT22;11851;50.796;4.372;2022-08-19T11:30:54;23.60;99.90
23359;DHT22;11851;50.796;4.372;2022-08-19T11:33:20;23.70;99.90
23359;DHT22;11851;50.796;4.372;2022-08-19T11:35:45;23.90;99.90
23359;DHT22;11851;50.796;4.372;2022-08-19T11:38:11;23.90;99.90
23359;DHT22;11851;50.796;4.372;2022-08-19T11:40:38;24.00;99.90
23359;DHT22;11851;50.796;4.372;2022-08-19T11:43:05;24.10;99.90
23359;DHT22;11851;50.796;4.372;2022-08-19T11:45:31;24.00;99.90
23359;DHT22;11851;50.796;4.372;2022-08-19T11:47:57;24.10;99.90
23359;DHT22;11851;50.796;4.372;2022-08-19T11:50:23;24.10;99.90
23359;DHT22;11851;50.796;4.372;2022-08-19T11:52:49;24.20;99.90
23359;DHT22;11851;50.796;4.372;2022-08-19T11:55:15;24.30;99.90
23359;DHT22;11851;50.796;4.372;2022-08-19T11:57:41;24.40;99.90
23359;DHT22;11851;50.796;4.372;2022-08-19T12:00:09;24.60;99.90
23359;DHT22;11851;50.796;4.372;2022-08-19T12:02:37;24.60;99.90
23359;DHT22;11851;50.796;4.372;2022-08-19T12:05:03;24.80;99.90
23359;DHT22;11851;50.796;4.372;2022-08-19T12:07:29;25.10;99.90
23359;DHT22;11851;50.796;4.372;2022-08-19T12:09:57;25.30;99.90
23359;DHT22;11851;50.796;4.372;2022-08-19T12:12:22;25.50;99.90
23359;DHT22;11851;50.796;4.372;2022-08-19T12:14:50;25.70;99.90
23359;DHT22;11851;50.796;4.372;2022-08-19T12:17:22;25.80;99.90
23359;DHT22;11851;50.796;4.372;2022-08-19T12:19:48;25.80;99.90
23359;DHT22;11851;50.796;4.372;2022-08-19T12:22:14;25.80;99.90
23359;DHT22;11851;50.796;4.372;2022-08-19T12:24:39;25.70;99.90
23359;DHT22;11851;50.796;4.372;2022-08-19T12:27:05;25.80;99.90
23359;DHT22;11851;50.796;4.372;2022-08-19T12:29:30;25.90;99.90
23359;DHT22;11851;50.796;4.372;2022-08-19T12:31:58;25.90;99.90
23359;DHT22;11851;50.796;4.372;2022-08-19T12:34:27;26.00;99.90
23359;DHT22;11851;50.796;4.372;2022-08-19T12:37:00;26.00;99.90
23359;DHT22;11851;50.796;4.372;2022-08-19T12:39:26;26.00;99.90
23359;DHT22;11851;50.796;4.372;2022-08-19T12:41:52;26.00;99.90
23359;DHT22;11851;50.796;4.372;2022-08-19T12:44:18;26.00;99.90
23359;DHT22;11851;50.796;4.372;2022-08-19T12:46:44;26.00;99.90
23359;DHT22;11851;50.796;4.372;2022-08-19T12:49:10;26.00;99.90
23359;DHT22;11851;50.796;4.372;2022-08-19T12:51:36;26.20;99.90
23359;DHT22;11851;50.796;4.372;2022-08-19T12:54:02;26.30;99.90
23359;DHT22;11851;50.796;4.372;2022-08-19T12:56:27;26.20;99.90
23359;DHT22;11851;50.796;4.372;2022-08-19T12:58:53;26.10;99.90
23359;DHT22;11851;50.796;4.372;2022-08-19T13:01:20;26.20;99.90
23359;DHT22;11851;50.796;4.372;2022-08-19T13:03:46;26.30;99.90
23359;DHT22;11851;50.796;4.372;2022-08-19T13:06:12;26.40;99.90
23359;DHT22;11851;50.796;4.372;2022-08-19T13:08:38;26.50;99.90
23359;DHT22;11851;50.796;4.372;2022-08-19T13:11:14;26.70;99.90
23359;DHT22;11851;50.796;4.372;2022-08-19T13:13:45;26.60;99.90
23359;DHT22;11851;50.796;4.372;2022-08-19T13:16:12;26.60;99.90
23359;DHT22;11851;50.796;4.372;2022-08-19T13:18:40;26.50;99.90
23359;DHT22;11851;50.796;4.372;2022-08-19T13:21:07;26.40;99.90
23359;DHT22;11851;50.796;4.372;2022-08-19T13:23:34;26.40;99.90
23359;DHT22;11851;50.796;4.372;2022-08-19T13:26:03;26.10;99.90
23359;DHT22;11851;50.796;4.372;2022-08-19T13:28:30;26.10;99.90
23359;DHT22;11851;50.796;4.372;2022-08-19T13:31:21;26.40;99.90
23359;DHT22;11851;50.796;4.372;2022-08-19T13:34:05;26.60;99.90
23359;DHT22;11851;50.796;4.372;2022-08-19T13:36:35;26.80;99.90
23359;DHT22;11851;50.796;4.372;2022-08-19T13:39:00;26.90;99.90
23359;DHT22;11851;50.796;4.372;2022-08-19T13:41:26;27.00;99.90
23359;DHT22;11851;50.796;4.372;2022-08-19T13:43:53;27.10;99.90
23359;DHT22;11851;50.796;4.372;2022-08-19T13:46:20;27.20;99.90
23359;DHT22;11851;50.796;4.372;2022-08-19T13:48:46;27.30;99.90
23359;DHT22;11851;50.796;4.372;2022-08-19T13:51:14;27.50;99.90
23359;DHT22;11851;50.796;4.372;2022-08-19T13:53:42;27.40;99.90
23359;DHT22;11851;50.796;4.372;2022-08-19T13:56:13;27.30;99.90
23359;DHT22;11851;50.796;4.372;2022-08-19T13:58:40;27.30;99.90
23359;DHT22;11851;50.796;4.372;2022-08-19T14:01:06;27.10;99.90
23359;DHT22;11851;50.796;4.372;2022-08-19T14:03:33;26.80;99.90
23359;DHT22;11851;50.796;4.372;2022-08-19T14:05:59;26.80;99.90
23359;DHT22;11851;50.796;4.372;2022-08-19T14:08:25;26.70;99.90
23359;DHT22;11851;50.796;4.372;2022-08-19T14:10:53;26.60;99.90
23359;DHT22;11851;50.796;4.372;2022-08-19T14:13:21;26.40;99.90
23359;DHT22;11851;50.796;4.372;2022-08-19T14:15:47;26.30;99.90
23359;DHT22;11851;50.796;4.372;2022-08-19T14:18:14;26.00;99.90
23359;DHT22;11851;50.796;4.372;2022-08-19T14:20:41;25.90;99.90
23359;DHT22;11851;50.796;4.372;2022-08-19T14:23:06;25.80;99.90
23359;DHT22;11851;50.796;4.372;2022-08-19T14:25:32;25.50;99.90
23359;DHT22;11851;50.796;4.372;2022-08-19T14:27:59;25.30;99.90
23359;DHT22;11851;50.796;4.372;2022-08-19T14:30:30;25.00;99.90
23359;DHT22;11851;50.796;4.372;2022-08-19T14:32:58;24.90;99.90
23359;DHT22;11851;50.796;4.372;2022-08-19T14:35:25;24.80;99.90
23359;DHT22;11851;50.796;4.372;2022-08-19T14:37:52;24.60;99.90
23359;DHT22;11851;50.796;4.372;2022-08-19T14:40:22;24.40;99.90
23359;DHT22;11851;50.796;4.372;2022-08-19T14:42:52;24.30;99.90
23359;DHT22;11851;50.796;4.372;2022-08-19T14:45:25;24.30;99.90
23359;DHT22;11851;50.796;4.372;2022-08-19T14:47:51;24.30;99.90
23359;DHT22;11851;50.796;4.372;2022-08-19T14:50:17;24.50;99.90
23359;DHT22;11851;50.796;4.372;2022-08-19T14:52:43;24.60;99.90
23359;DHT22;11851;50.796;4.372;2022-08-19T14:55:08;24.80;99.90
23359;DHT22;11851;50.796;4.372;2022-08-19T14:57:34;25.40;99.90
23359;DHT22;11851;50.796;4.372;2022-08-19T15:00:00;27.20;99.90
23359;DHT22;11851;50.796;4.372;2022-08-19T15:02:25;29.70;99.90
23359;DHT22;11851;50.796;4.372;2022-08-19T15:04:51;31.00;99.90
23359;DHT22;11851;50.796;4.372;2022-08-19T15:07:17;31.00;98.80
23359;DHT22;11851;50.796;4.372;2022-08-19T15:09:43;30.40;98.50
23359;DHT22;11851;50.796;4.372;2022-08-19T15:12:08;29.90;99.40
23359;DHT22;11851;50.796;4.372;2022-08-19T15:14:36;29.50;99.90
23359;DHT22;11851;50.796;4.372;2022-08-19T15:17:04;29.00;99.90
23359;DHT22;11851;50.796;4.372;2022-08-19T15:19:31;28.50;99.90
23359;DHT22;11851;50.796;4.372;2022-08-19T15:21:58;28.10;99.90
23359;DHT22;11851;50.796;4.372;2022-08-19T15:24:24;27.60;99.90
23359;DHT22;11851;50.796;4.372;2022-08-19T15:26:52;27.40;99.90
23359;DHT22;11851;50.796;4.372;2022-08-19T15:29:18;27.20;99.90
23359;DHT22;11851;50.796;4.372;2022-08-19T15:31:43;27.20;99.90
23359;DHT22;11851;50.796;4.372;2022-08-19T15:34:10;27.20;99.90
23359;DHT22;11851;50.796;4.372;2022-08-19T15:36:36;27.10;99.90
23359;DHT22;11851;50.796;4.372;2022-08-19T15:39:04;27.80;99.90
23359;DHT22;11851;50.796;4.372;2022-08-19T15:41:30;28.60;99.90
23359;DHT22;11851;50.796;4.372;2022-08-19T15:44:08;28.90;99.90
23359;DHT22;11851;50.796;4.372;2022-08-19T15:46:37;29.20;99.70